sensor_id;sensor_type;location;lat;lon;timestamp;pressure;altitude;pressure_sealevel;temperature;humidity
21276;BME280;36472;52.170;20.884;2022-10-22T00:01:52;100248.22;;;8.47;100.00
21276;BME280;36472;52.170;20.884;2022-10-22T00:04:21;100254.16;;;8.51;100.00
21276;BME280;36472;52.170;20.884;2022-10-22T00:06:50;100247.88;;;8.53;100.00
21276;BME280;36472;52.170;20.884;2022-10-22T00:09:18;100233.94;;;8.53;100.00
21276;BME280;36472;52.170;20.884;2022-10-22T00:11:47;100240.78;;;8.55;100.00
21276;BME280;36472;52.170;20.884;2022-10-22T00:14:16;100228.63;;;8.54;100.00
21276;BME280;36472;52.170;20.884;2022-10-22T00:16:45;100240.69;;;8.57;100.00
21276;BME280;36472;52.170;20.884;2022-10-22T00:19:15;100238.72;;;8.60;100.00
21276;BME280;36472;52.170;20.884;2022-10-22T00:21:44;100235.34;;;8.58;100.00
21276;BME280;36472;52.170;20.884;2022-10-22T00:24:12;100241.44;;;8.59;100.00
21276;BME280;36472;52.170;20.884;2022-10-22T00:26:41;100232.66;;;8.60;100.00
21276;BME280;36472;52.170;20.884;2022-10-22T00:29:10;100230.78;;;8.62;100.00
21276;BME280;36472;52.170;20.884;2022-10-22T00:31:39;100221.72;;;8.68;100.00
21276;BME280;36472;52.170;20.884;2022-10-22T00:34:07;100219.94;;;8.68;100.00
21276;BME280;36472;52.170;20.884;2022-10-22T00:36:37;100204.13;;;8.70;100.00
21276;BME280;36472;52.170;20.884;2022-10-22T00:39:06;100196.34;;;8.68;100.00
21276;BME280;36472;52.170;20.884;2022-10-22T00:41:35;100197.94;;;8.71;100.00
21276;BME280;36472;52.170;20.884;2022-10-22T00:44:05;100197.09;;;8.70;100.00
21276;BME280;36472;52.170;20.884;2022-10-22T00:46:34;100193.56;;;8.71;100.00
21276;BME280;36472;52.170;20.884;2022-10-22T00:49:03;100195.88;;;8.76;100.00
21276;BME280;36472;52.170;20.884;2022-10-22T00:51:34;100198.31;;;8.79;100.00
21276;BME280;36472;52.170;20.884;2022-10-22T00:54:07;100197.41;;;8.80;100.00
21276;BME280;36472;52.170;20.884;2022-10-22T00:56:37;100199.06;;;8.81;100.00
21276;BME280;36472;52.170;20.884;2022-10-22T00:59:06;100195.50;;;8.82;100.00
21276;BME280;36472;52.170;20.884;2022-10-22T01:01:39;100195.50;;;8.82;100.00
21276;BME280;36472;52.170;20.884;2022-10-22T01:04:08;100181.50;;;8.83;100.00
21276;BME280;36472;52.170;20.884;2022-10-22T01:06:37;100184.75;;;8.87;100.00
21276;BME280;36472;52.170;20.884;2022-10-22T01:09:17;100182.03;;;8.88;100.00
21276;BME280;36472;52.170;20.884;2022-10-22T01:11:59;100190.66;;;8.90;100.00
21276;BME280;36472;52.170;20.884;2022-10-22T01:14:43;100182.69;;;8.92;100.00
21276;BME280;36472;52.170;20.884;2022-10-22T01:17:24;100174.94;;;8.90;100.00
21276;BME280;36472;52.170;20.884;2022-10-22T01:20:10;100176.13;;;8.99;100.00
21276;BME280;36472;52.170;20.884;2022-10-22T01:22:46;100171.91;;;8.96;100.00
21276;BME280;36472;52.170;20.884;2022-10-22T01:25:30;100163.13;;;8.97;100.00
21276;BME280;36472;52.170;20.884;2022-10-22T01:28:16;100170.41;;;9.07;100.00
21276;BME280;36472;52.170;20.884;2022-10-22T01:30:52;100172.09;;;9.08;100.00
21276;BME280;36472;52.170;20.884;2022-10-22T01:33:26;100158.25;;;9.06;100.00
21276;BME280;36472;52.170;20.884;2022-10-22T01:35:57;100156.38;;;9.08;100.00
21276;BME280;36472;52.170;20.884;2022-10-22T01:38:28;100159.16;;;9.05;100.00
21276;BME280;36472;52.170;20.884;2022-10-22T01:40:58;100159.91;;;9.07;100.00
21276;BME280;36472;52.170;20.884;2022-10-22T01:43:27;100161.59;;;9.08;100.00
21276;BME280;36472;52.170;20.884;2022-10-22T01:46:01;100172.66;;;9.13;100.00
21276;BME280;36472;52.170;20.884;2022-10-22T01:48:44;100177.06;;;9.12;100.00
21276;BME280;36472;52.170;20.884;2022-10-22T01:51:43;100170.22;;;9.10;100.00
21276;BME280;36472;52.170;20.884;2022-10-22T01:54:27;100163.19;;;9.10;100.00
21276;BME280;36472;52.170;20.884;2022-10-22T01:57:08;100170.22;;;9.10;100.00
21276;BME280;36472;52.170;20.884;2022-10-22T01:59:52;100160.78;;;9.07;100.00
21276;BME280;36472;52.170;20.884;2022-10-22T02:02:34;100152.69;;;9.10;100.00
21276;BME280;36472;52.170;20.884;2022-10-22T02:05:11;100151.22;;;9.06;100.00
21276;BME280;36472;52.170;20.884;2022-10-22T02:07:47;100143.06;;;9.11;100.00
21276;BME280;36472;52.170;20.884;2022-10-22T02:10:18;100144.09;;;9.08;100.00
21276;BME280;36472;52.170;20.884;2022-10-22T02:12:51;100147.34;;;9.12;100.00
21276;BME280;36472;52.170;20.884;2022-10-22T02:15:25;100148.50;;;9.08;100.00
21276;BME280;36472;52.170;20.884;2022-10-22T02:17:58;100151.75;;;9.11;100.00
21276;BME280;36472;52.170;20.884;2022-10-22T02:20:30;100147.66;;;9.07;100.00
21276;BME280;36472;52.170;20.884;2022-10-22T02:23:01;100148.50;;;9.08;100.00
21276;BME280;36472;52.170;20.884;2022-10-22T02:25:34;100140.63;;;9.08;100.00
21276;BME280;36472;52.170;20.884;2022-10-22T02:28:12;100140.81;;;9.05;100.00
21276;BME280;36472;52.170;20.884;2022-10-22T02:30:47;100139.91;;;9.06;100.00
21276;BME280;36472;52.170;20.884;2022-10-22T02:33:26;100143.44;;;9.05;100.00
21276;BME280;36472;52.170;20.884;2022-10-22T02:35:57;100148.22;;;9.12;100.00
21276;BME280;36472;52.170;20.884;2022-10-22T02:38:29;100156.63;;;9.17;100.00
21276;BME280;36472;52.170;20.884;2022-10-22T02:40:58;100155.03;;;9.15;100.00
21276;BME280;36472;52.170;20.884;2022-10-22T02:43:28;100158.28;;;9.18;100.00
21276;BME280;36472;52.170;20.884;2022-10-22T02:45:57;100153.06;;;9.18;100.00
21276;BME280;36472;52.170;20.884;2022-10-22T02:48:27;100155.56;;;9.20;100.00
21276;BME280;36472;52.170;20.884;2022-10-22T02:50:56;100151.38;;;9.17;100.00
21276;BME280;36472;52.170;20.884;2022-10-22T02:53:24;100152.41;;;9.15;100.00
21276;BME280;36472;52.170;20.884;2022-10-22T02:55:53;100153.25;;;9.15;100.00
21276;BME280;36472;52.170;20.884;2022-10-22T02:58:21;100156.53;;;9.19;100.00
21276;BME280;36472;52.170;20.884;2022-10-22T03:00:50;100149.59;;;9.18;100.00
21276;BME280;36472;52.170;20.884;2022-10-22T03:03:19;100156.72;;;9.16;100.00
21276;BME280;36472;52.170;20.884;2022-10-22T03:05:49;100147.16;;;9.15;100.00
21276;BME280;36472;52.170;20.884;2022-10-22T03:08:18;100150.53;;;9.17;100.00
21276;BME280;36472;52.170;20.884;2022-10-22T03:10:47;100149.69;;;9.16;100.00
21276;BME280;36472;52.170;20.884;2022-10-22T03:13:16;100141.81;;;9.16;100.00
21276;BME280;36472;52.170;20.884;2022-10-22T03:15:47;100141.00;;;9.16;100.00
21276;BME280;36472;52.170;20.884;2022-10-22T03:18:17;100135.75;;;9.16;100.00
21276;BME280;36472;52.170;20.884;2022-10-22T03:20:45;100133.78;;;9.20;100.00
21276;BME280;36472;52.170;20.884;2022-10-22T03:23:18;100139.09;;;9.18;100.00
21276;BME280;36472;52.170;20.884;2022-10-22T03:25:49;100129.34;;;9.20;100.00
21276;BME280;36472;52.170;20.884;2022-10-22T03:28:17;100129.53;;;9.17;100.00
21276;BME280;36472;52.170;20.884;2022-10-22T03:30:46;100137.13;;;9.22;100.00
21276;BME280;36472;52.170;20.884;2022-10-22T03:33:15;100144.06;;;9.23;100.00
21276;BME280;36472;52.170;20.884;2022-10-22T03:35:45;100144.16;;;9.21;100.00
21276;BME280;36472;52.170;20.884;2022-10-22T03:38:16;100151.94;;;9.23;100.00
21276;BME280;36472;52.170;20.884;2022-10-22T03:40:45;100157.19;;;9.23;100.00
21276;BME280;36472;52.170;20.884;2022-10-22T03:43:15;100159.72;;;9.24;100.00
21276;BME280;36472;52.170;20.884;2022-10-22T03:45:43;100149.41;;;9.21;100.00
21276;BME280;36472;52.170;20.884;2022-10-22T03:48:13;100159.72;;;9.24;100.00
21276;BME280;36472;52.170;20.884;2022-10-22T03:50:41;100159.50;;;9.27;100.00
21276;BME280;36472;52.170;20.884;2022-10-22T03:53:10;100148.16;;;9.27;100.00
21276;BME280;36472;52.170;20.884;2022-10-22T03:55:41;100142.94;;;9.27;100.00
21276;BME280;36472;52.170;20.884;2022-10-22T03:58:10;100143.56;;;9.30;100.00
21276;BME280;36472;52.170;20.884;2022-10-22T04:00:39;100138.50;;;9.27;100.00
21276;BME280;36472;52.170;20.884;2022-10-22T04:03:08;100149.00;;;9.27;100.00
21276;BME280;36472;52.170;20.884;2022-10-22T04:05:36;100151.34;;;9.32;100.00
21276;BME280;36472;52.170;20.884;2022-10-22T04:08:05;100157.22;;;9.35;100.00
21276;BME280;36472;52.170;20.884;2022-10-22T04:10:34;100146.63;;;9.37;100.00
21276;BME280;36472;52.170;20.884;2022-10-22T04:13:04;100139.59;;;9.38;100.00
21276;BME280;36472;52.170;20.884;2022-10-22T04:15:32;100148.25;;;9.40;100.00
21276;BME280;36472;52.170;20.884;2022-10-22T04:18:01;100143.44;;;9.46;100.00
21276;BME280;36472;52.170;20.884;2022-10-22T04:20:29;100135.66;;;9.45;100.00
21276;BME280;36472;52.170;20.884;2022-10-22T04:22:58;100125.28;;;9.43;100.00
21276;BME280;36472;52.170;20.884;2022-10-22T04:25:27;100113.00;;;9.44;100.00
21276;BME280;36472;52.170;20.884;2022-10-22T04:27:55;100107.84;;;9.42;100.00
21276;BME280;36472;52.170;20.884;2022-10-22T04:30:26;100108.56;;;9.44;100.00
21276;BME280;36472;52.170;20.884;2022-10-22T04:32:55;100113.00;;;9.44;100.00
21276;BME280;36472;52.170;20.884;2022-10-22T04:35:23;100101.66;;;9.43;100.00
21276;BME280;36472;52.170;20.884;2022-10-22T04:37:57;100094.72;;;9.42;100.00
21276;BME280;36472;52.170;20.884;2022-10-22T04:40:26;100089.28;;;9.45;100.00
21276;BME280;36472;52.170;20.884;2022-10-22T04:42:55;100085.72;;;9.46;100.00
21276;BME280;36472;52.170;20.884;2022-10-22T04:45:25;100100.59;;;9.46;100.00
21276;BME280;36472;52.170;20.884;2022-10-22T04:47:54;100100.22;;;9.52;100.00
21276;BME280;36472;52.170;20.884;2022-10-22T04:50:23;100098.72;;;9.48;100.00
21276;BME280;36472;52.170;20.884;2022-10-22T04:52:52;100100.50;;;9.47;100.00
21276;BME280;36472;52.170;20.884;2022-10-22T04:55:21;100097.78;;;9.49;100.00
21276;BME280;36472;52.170;20.884;2022-10-22T04:57:49;100095.16;;;9.49;100.00
21276;BME280;36472;52.170;20.884;2022-10-22T05:00:18;100097.31;;;9.57;100.00
21276;BME280;36472;52.170;20.884;2022-10-22T05:02:50;100100.03;;;9.55;100.00
21276;BME280;36472;52.170;20.884;2022-10-22T05:05:18;100088.91;;;9.51;100.00
21276;BME280;36472;52.170;20.884;2022-10-22T05:07:49;100101.88;;;9.53;100.00
21276;BME280;36472;52.170;20.884;2022-10-22T05:10:18;100100.22;;;9.52;100.00
21276;BME280;36472;52.170;20.884;2022-10-22T05:12:46;100108.47;;;9.46;100.00
21276;BME280;36472;52.170;20.884;2022-10-22T05:15:15;100110.91;;;9.49;100.00
21276;BME280;36472;52.170;20.884;2022-10-22T05:17:44;100123.00;;;9.51;100.00
21276;BME280;36472;52.170;20.884;2022-10-22T05:20:14;100118.59;;;9.52;100.00
21276;BME280;36472;52.170;20.884;2022-10-22T05:22:43;100119.41;;;9.52;100.00
21276;BME280;36472;52.170;20.884;2022-10-22T05:25:11;100125.50;;;9.53;100.00
21276;BME280;36472;52.170;20.884;2022-10-22T05:27:40;100126.44;;;9.52;100.00
21276;BME280;36472;52.170;20.884;2022-10-22T05:30:10;100126.34;;;9.53;100.00
21276;BME280;36472;52.170;20.884;2022-10-22T05:32:39;100112.38;;;9.53;100.00
21276;BME280;36472;52.170;20.884;2022-10-22T05:35:08;100118.38;;;9.55;100.00
21276;BME280;36472;52.170;20.884;2022-10-22T05:37:38;100113.88;;;9.57;100.00
21276;BME280;36472;52.170;20.884;2022-10-22T05:40:09;100104.31;;;9.56;100.00
21276;BME280;36472;52.170;20.884;2022-10-22T05:42:53;100108.44;;;9.60;100.00
21276;BME280;36472;52.170;20.884;2022-10-22T05:45:21;100102.22;;;9.61;100.00
21276;BME280;36472;52.170;20.884;2022-10-22T05:47:50;100108.22;;;9.63;100.00
21276;BME280;36472;52.170;20.884;2022-10-22T05:50:19;100111.78;;;9.62;100.00
21276;BME280;36472;52.170;20.884;2022-10-22T05:52:49;100109.91;;;9.64;100.00
21276;BME280;36472;52.170;20.884;2022-10-22T05:55:17;100098.38;;;9.67;100.00
21276;BME280;36472;52.170;20.884;2022-10-22T05:57:46;100096.38;;;9.70;100.00
21276;BME280;36472;52.170;20.884;2022-10-22T06:00:16;100095.22;;;9.74;100.00
21276;BME280;36472;52.170;20.884;2022-10-22T06:02:49;100107.19;;;9.79;100.00
21276;BME280;36472;52.170;20.884;2022-10-22T06:05:17;100122.00;;;9.80;100.00
21276;BME280;36472;52.170;20.884;2022-10-22T06:07:46;100120.03;;;9.83;100.00
21276;BME280;36472;52.170;20.884;2022-10-22T06:10:19;100111.00;;;9.87;100.00
21276;BME280;36472;52.170;20.884;2022-10-22T06:12:49;100106.69;;;9.86;100.00
21276;BME280;36472;52.170;20.884;2022-10-22T06:15:18;100123.06;;;9.90;100.00
21276;BME280;36472;52.170;20.884;2022-10-22T06:17:47;100125.91;;;9.87;100.00
21276;BME280;36472;52.170;20.884;2022-10-22T06:20:16;100128.41;;;9.88;100.00
21276;BME280;36472;52.170;20.884;2022-10-22T06:22:45;100128.13;;;9.93;100.00
21276;BME280;36472;52.170;20.884;2022-10-22T06:25:16;100130.66;;;9.95;100.00
21276;BME280;36472;52.170;20.884;2022-10-22T06:27:49;100132.13;;;9.99;100.00
21276;BME280;36472;52.170;20.884;2022-10-22T06:30:18;100123.50;;;9.97;100.00
21276;BME280;36472;52.170;20.884;2022-10-22T06:32:47;100121.94;;;9.94;100.00
21276;BME280;36472;52.170;20.884;2022-10-22T06:35:15;100141.59;;;10.01;100.00
21276;BME280;36472;52.170;20.884;2022-10-22T06:37:44;100145.78;;;10.04;100.00
21276;BME280;36472;52.170;20.884;2022-10-22T06:40:15;100126.56;;;10.03;100.00
21276;BME280;36472;52.170;20.884;2022-10-22T06:42:45;100136.13;;;10.04;100.00
21276;BME280;36472;52.170;20.884;2022-10-22T06:45:14;100126.38;;;10.06;100.00
21276;BME280;36472;52.170;20.884;2022-10-22T06:47:43;100131.50;;;10.08;100.00
21276;BME280;36472;52.170;20.884;2022-10-22T06:50:13;100124.88;;;10.02;100.00
21276;BME280;36472;52.170;20.884;2022-10-22T06:52:42;100138.13;;;10.14;100.00
21276;BME280;36472;52.170;20.884;2022-10-22T06:55:11;100153.47;;;10.20;100.00
21276;BME280;36472;52.170;20.884;2022-10-22T06:57:41;100141.50;;;10.67;100.00
21276;BME280;36472;52.170;20.884;2022-10-22T07:00:11;100139.53;;;10.45;100.00
21276;BME280;36472;52.170;20.884;2022-10-22T07:02:40;100143.53;;;10.38;100.00
21276;BME280;36472;52.170;20.884;2022-10-22T07:05:09;100168.97;;;10.37;100.00
21276;BME280;36472;52.170;20.884;2022-10-22T07:07:38;100177.88;;;10.35;100.00
21276;BME280;36472;52.170;20.884;2022-10-22T07:10:08;100190.53;;;10.28;100.00
21276;BME280;36472;52.170;20.884;2022-10-22T07:12:37;100192.44;;;10.26;100.00
21276;BME280;36472;52.170;20.884;2022-10-22T07:15:08;100190.13;;;10.21;100.00
21276;BME280;36472;52.170;20.884;2022-10-22T07:17:37;100191.91;;;10.21;100.00
21276;BME280;36472;52.170;20.884;2022-10-22T07:20:11;100182.13;;;10.23;100.00
21276;BME280;36472;52.170;20.884;2022-10-22T07:22:40;100183.94;;;10.22;100.00
21276;BME280;36472;52.170;20.884;2022-10-22T07:25:09;100179.50;;;10.23;100.00
21276;BME280;36472;52.170;20.884;2022-10-22T07:27:38;100179.31;;;10.26;100.00
21276;BME280;36472;52.170;20.884;2022-10-22T07:30:10;100178.75;;;10.35;100.00
21276;BME280;36472;52.170;20.884;2022-10-22T07:32:39;100168.63;;;10.42;100.00
21276;BME280;36472;52.170;20.884;2022-10-22T07:35:08;100163.81;;;10.36;100.00
21276;BME280;36472;52.170;20.884;2022-10-22T07:37:37;100163.16;;;10.71;100.00
21276;BME280;36472;52.170;20.884;2022-10-22T07:40:08;100158.03;;;10.43;100.00
21276;BME280;36472;52.170;20.884;2022-10-22T07:42:37;100169.69;;;10.39;100.00
21276;BME280;36472;52.170;20.884;2022-10-22T07:45:08;100160.03;;;10.40;100.00
21276;BME280;36472;52.170;20.884;2022-10-22T07:47:37;100166.44;;;10.36;100.00
21276;BME280;36472;52.170;20.884;2022-10-22T07:50:07;100174.53;;;10.45;100.00
21276;BME280;36472;52.170;20.884;2022-10-22T07:52:36;100179.78;;;10.45;100.00
21276;BME280;36472;52.170;20.884;2022-10-22T07:55:06;100174.53;;;10.45;100.00
21276;BME280;36472;52.170;20.884;2022-10-22T07:57:35;100180.63;;;10.46;100.00
21276;BME280;36472;52.170;20.884;2022-10-22T08:00:05;100175.06;;;10.51;100.00
21276;BME280;36472;52.170;20.884;2022-10-22T08:02:41;100178.13;;;10.57;100.00
21276;BME280;36472;52.170;20.884;2022-10-22T08:05:10;100177.88;;;10.60;100.00
21276;BME280;36472;52.170;20.884;2022-10-22T08:07:40;100179.47;;;10.63;100.00
21276;BME280;36472;52.170;20.884;2022-10-22T08:10:10;100170.88;;;10.61;100.00
21276;BME280;36472;52.170;20.884;2022-10-22T08:12:40;100175.56;;;10.69;100.00
21276;BME280;36472;52.170;20.884;2022-10-22T08:15:09;100186.81;;;10.71;100.00
21276;BME280;36472;52.170;20.884;2022-10-22T08:17:38;100193.03;;;10.70;100.00
21276;BME280;36472;52.170;20.884;2022-10-22T08:20:10;100196.50;;;10.70;100.00
21276;BME280;36472;52.170;20.884;2022-10-22T08:22:38;100196.28;;;10.73;100.00
21276;BME280;36472;52.170;20.884;2022-10-22T08:25:08;100199.53;;;10.77;100.00
21276;BME280;36472;52.170;20.884;2022-10-22T08:27:37;100191.09;;;10.84;100.00
21276;BME280;36472;52.170;20.884;2022-10-22T08:30:08;100190.59;;;10.92;100.00
21276;BME280;36472;52.170;20.884;2022-10-22T08:32:37;100190.59;;;10.92;100.00
21276;BME280;36472;52.170;20.884;2022-10-22T08:35:07;100180.03;;;11.05;100.00
21276;BME280;36472;52.170;20.884;2022-10-22T08:37:40;100184.56;;;11.03;100.00
21276;BME280;36472;52.170;20.884;2022-10-22T08:40:19;100187.91;;;11.05;100.00
21276;BME280;36472;52.170;20.884;2022-10-22T08:43:40;100185.19;;;11.07;100.00
21276;BME280;36472;52.170;20.884;2022-10-22T08:46:31;100188.44;;;11.10;100.00
21276;BME280;36472;52.170;20.884;2022-10-22T08:49:04;100193.59;;;11.12;100.00
21276;BME280;36472;52.170;20.884;2022-10-22T08:51:42;100188.75;;;11.18;100.00
21276;BME280;36472;52.170;20.884;2022-10-22T08:54:22;100182.22;;;11.24;100.00
21276;BME280;36472;52.170;20.884;2022-10-22T08:57:25;100192.63;;;11.26;100.00
21276;BME280;36472;52.170;20.884;2022-10-22T09:00:08;100198.56;;;11.40;100.00
21276;BME280;36472;52.170;20.884;2022-10-22T09:02:51;100203.53;;;11.32;100.00
21276;BME280;36472;52.170;20.884;2022-10-22T09:05:38;100201.66;;;11.34;100.00
21276;BME280;36472;52.170;20.884;2022-10-22T09:08:13;100211.66;;;11.29;100.00
21276;BME280;36472;52.170;20.884;2022-10-22T09:10:47;100218.78;;;11.40;100.00
21276;BME280;36472;52.170;20.884;2022-10-22T09:13:20;100221.31;;;11.66;100.00
21276;BME280;36472;52.170;20.884;2022-10-22T09:15:54;100218.56;;;11.43;100.00
21276;BME280;36472;52.170;20.884;2022-10-22T09:18:35;100213.53;;;11.40;100.00
21276;BME280;36472;52.170;20.884;2022-10-22T09:21:18;100213.72;;;11.50;100.00
21276;BME280;36472;52.170;20.884;2022-10-22T09:24:02;100208.03;;;11.43;100.00
21276;BME280;36472;52.170;20.884;2022-10-22T09:26:36;100215.44;;;11.99;100.00
21276;BME280;36472;52.170;20.884;2022-10-22T09:29:13;100210.38;;;11.72;100.00
21276;BME280;36472;52.170;20.884;2022-10-22T09:31:45;100201.47;;;11.62;100.00
21276;BME280;36472;52.170;20.884;2022-10-22T09:34:16;100197.00;;;12.10;100.00
21276;BME280;36472;52.170;20.884;2022-10-22T09:36:56;100193.88;;;12.05;100.00
21276;BME280;36472;52.170;20.884;2022-10-22T09:39:31;100199.03;;;12.53;100.00
21276;BME280;36472;52.170;20.884;2022-10-22T09:42:00;100192.56;;;12.11;100.00
21276;BME280;36472;52.170;20.884;2022-10-22T09:44:32;100187.78;;;12.16;100.00
21276;BME280;36472;52.170;20.884;2022-10-22T09:47:04;100181.09;;;12.12;100.00
21276;BME280;36472;52.170;20.884;2022-10-22T09:49:34;100180.19;;;12.47;100.00
21276;BME280;36472;52.170;20.884;2022-10-22T09:52:25;100177.56;;;13.15;100.00
21276;BME280;36472;52.170;20.884;2022-10-22T09:55:00;100185.00;;;13.09;100.00
21276;BME280;36472;52.170;20.884;2022-10-22T09:57:31;100189.31;;;14.09;98.24
21276;BME280;36472;52.170;20.884;2022-10-22T10:00:09;100188.34;;;13.45;98.98
21276;BME280;36472;52.170;20.884;2022-10-22T10:02:41;100189.25;;;13.99;96.07
21276;BME280;36472;52.170;20.884;2022-10-22T10:05:19;100198.44;;;13.40;100.00
21276;BME280;36472;52.170;20.884;2022-10-22T10:07:48;100207.78;;;13.88;96.28
21276;BME280;36472;52.170;20.884;2022-10-22T10:10:27;100204.44;;;13.31;99.33
21276;BME280;36472;52.170;20.884;2022-10-22T10:13:15;100190.66;;;12.60;100.00
21276;BME280;36472;52.170;20.884;2022-10-22T10:15:54;100199.88;;;13.44;100.00
21276;BME280;36472;52.170;20.884;2022-10-22T10:18:41;100204.19;;;12.66;100.00
21276;BME280;36472;52.170;20.884;2022-10-22T10:21:22;100211.53;;;13.19;100.00
21276;BME280;36472;52.170;20.884;2022-10-22T10:24:02;100211.88;;;13.26;100.00
21276;BME280;36472;52.170;20.884;2022-10-22T10:26:49;100212.84;;;13.14;100.00
21276;BME280;36472;52.170;20.884;2022-10-22T10:29:36;100217.66;;;12.97;100.00
21276;BME280;36472;52.170;20.884;2022-10-22T10:32:50;100210.56;;;13.32;100.00
21276;BME280;36472;52.170;20.884;2022-10-22T10:35:26;100210.41;;;13.22;100.00
21276;BME280;36472;52.170;20.884;2022-10-22T10:38:24;100207.47;;;13.15;100.00
21276;BME280;36472;52.170;20.884;2022-10-22T10:41:11;100208.88;;;12.85;100.00
21276;BME280;36472;52.170;20.884;2022-10-22T10:44:02;100224.16;;;12.35;100.00
21276;BME280;36472;52.170;20.884;2022-10-22T10:46:49;100234.50;;;12.14;100.00
21276;BME280;36472;52.170;20.884;2022-10-22T10:49:25;100234.81;;;12.33;100.00
21276;BME280;36472;52.170;20.884;2022-10-22T10:52:05;100227.31;;;12.16;100.00
21276;BME280;36472;52.170;20.884;2022-10-22T10:55:10;100233.34;;;12.18;100.00
21276;BME280;36472;52.170;20.884;2022-10-22T10:57:52;100225.66;;;12.15;100.00
21276;BME280;36472;52.170;20.884;2022-10-22T11:00:35;100230.41;;;12.10;100.00
21276;BME280;36472;52.170;20.884;2022-10-22T11:03:53;100221.47;;;12.24;100.00
21276;BME280;36472;52.170;20.884;2022-10-22T11:06:31;100222.03;;;12.16;100.00
21276;BME280;36472;52.170;20.884;2022-10-22T11:09:06;100210.78;;;12.14;100.00
21276;BME280;36472;52.170;20.884;2022-10-22T11:11:44;100199.03;;;12.07;100.00
21276;BME280;36472;52.170;20.884;2022-10-22T11:14:20;100197.13;;;12.67;100.00
21276;BME280;36472;52.170;20.884;2022-10-22T11:17:03;100183.41;;;12.28;100.00
21276;BME280;36472;52.170;20.884;2022-10-22T11:19:37;100187.94;;;12.26;100.00
21276;BME280;36472;52.170;20.884;2022-10-22T11:22:25;100184.63;;;12.35;100.00
21276;BME280;36472;52.170;20.884;2022-10-22T11:25:03;100179.84;;;12.51;100.00
21276;BME280;36472;52.170;20.884;2022-10-22T11:27:39;100188.09;;;12.47;100.00
21276;BME280;36472;52.170;20.884;2022-10-22T11:30:13;100189.59;;;12.62;100.00
21276;BME280;36472;52.170;20.884;2022-10-22T11:32:52;100192.72;;;12.67;100.00
21276;BME280;36472;52.170;20.884;2022-10-22T11:35:25;100188.09;;;12.47;100.00
21276;BME280;36472;52.170;20.884;2022-10-22T11:37:56;100188.72;;;12.39;100.00
21276;BME280;36472;52.170;20.884;2022-10-22T11:40:34;100173.13;;;12.25;100.00
21276;BME280;36472;52.170;20.884;2022-10-22T11:43:06;100191.22;;;12.41;100.00
21276;BME280;36472;52.170;20.884;2022-10-22T11:45:37;100187.50;;;12.32;100.00
21276;BME280;36472;52.170;20.884;2022-10-22T11:48:17;100183.09;;;12.55;100.00
21276;BME280;36472;52.170;20.884;2022-10-22T11:50:50;100179.72;;;12.42;100.00
21276;BME280;36472;52.170;20.884;2022-10-22T11:53:30;100174.75;;;12.72;100.00
21276;BME280;36472;52.170;20.884;2022-10-22T11:56:21;100174.72;;;12.61;100.00
21276;BME280;36472;52.170;20.884;2022-10-22T11:58:53;100165.00;;;12.50;100.00
21276;BME280;36472;52.170;20.884;2022-10-22T12:01:29;100174.69;;;13.18;100.00
21276;BME280;36472;52.170;20.884;2022-10-22T12:04:21;100163.44;;;12.70;100.00
21276;BME280;36472;52.170;20.884;2022-10-22T12:06:58;100153.63;;;12.61;100.00
21276;BME280;36472;52.170;20.884;2022-10-22T12:09:29;100156.03;;;12.64;100.00
21276;BME280;36472;52.170;20.884;2022-10-22T12:12:09;100159.38;;;12.66;100.00
21276;BME280;36472;52.170;20.884;2022-10-22T12:14:52;100153.41;;;12.64;100.00
21276;BME280;36472;52.170;20.884;2022-10-22T12:17:23;100160.72;;;12.61;100.00
21276;BME280;36472;52.170;20.884;2022-10-22T12:20:00;100150.03;;;12.62;100.00
21276;BME280;36472;52.170;20.884;2022-10-22T12:22:33;100155.78;;;12.56;100.00
21276;BME280;36472;52.170;20.884;2022-10-22T12:25:16;100151.94;;;12.60;100.00
21276;BME280;36472;52.170;20.884;2022-10-22T12:27:51;100158.78;;;12.63;100.00
21276;BME280;36472;52.170;20.884;2022-10-22T12:30:24;100160.09;;;12.80;100.00
21276;BME280;36472;52.170;20.884;2022-10-22T12:32:57;100153.63;;;12.61;100.00
21276;BME280;36472;52.170;20.884;2022-10-22T12:35:30;100149.31;;;12.60;100.00
21276;BME280;36472;52.170;20.884;2022-10-22T12:38:03;100150.16;;;12.61;100.00
21276;BME280;36472;52.170;20.884;2022-10-22T12:40:34;100148.34;;;12.61;100.00
21276;BME280;36472;52.170;20.884;2022-10-22T12:43:12;100156.97;;;12.63;100.00
21276;BME280;36472;52.170;20.884;2022-10-22T12:45:45;100156.97;;;12.86;100.00
21276;BME280;36472;52.170;20.884;2022-10-22T12:48:18;100154.34;;;12.75;100.00
21276;BME280;36472;52.170;20.884;2022-10-22T12:50:52;100153.28;;;12.66;100.00
21276;BME280;36472;52.170;20.884;2022-10-22T12:53:28;100147.75;;;12.69;100.00
21276;BME280;36472;52.170;20.884;2022-10-22T12:56:02;100149.56;;;12.68;100.00
21276;BME280;36472;52.170;20.884;2022-10-22T12:58:38;100153.75;;;12.71;100.00
21276;BME280;36472;52.170;20.884;2022-10-22T13:01:10;100151.72;;;12.63;100.00
21276;BME280;36472;52.170;20.884;2022-10-22T13:03:43;100150.28;;;12.59;100.00
21276;BME280;36472;52.170;20.884;2022-10-22T13:06:23;100176.41;;;12.62;100.00
21276;BME280;36472;52.170;20.884;2022-10-22T13:09:05;100181.06;;;12.59;100.00